Time;durP1;ratioP1;P1;durP2;ratioP2;P2;SDS_P1;SDS_P2;PMS_P1;PMS_P2;Temp;Humidity;BMP_temperature;BMP_pressure;BME280_temperature;BME280_humidity;BME280_pressure;Samples;Min_cycle;Max_cycle;Signal;HPM_P1;HPM_P2
2022/05/09 00:00:42;;;;;;;;;;;;;;;14.75;77.89;100258.44;5073581;28;19925;-63
2022/05/09 00:03:12;;;;;;;;;;;;;;;14.77;78.17;100256.72;5073727;28;19925;-64
2022/05/09 00:05:41;;;;;;;;;;;;;;;14.77;77.93;100259.28;5074022;28;19924;-63
2022/05/09 00:08:09;;;;;;;;;;;;;;;14.81;78.33;100254.09;5073958;28;20340;-63
2022/05/09 00:10:47;;;;;;;;;;;;;;;14.83;78.20;100252.38;5073587;28;19924;-63
2022/05/09 00:13:16;;;;;;;;;;;;;;;14.86;78.00;100247.19;5077878;28;19925;-63
2022/05/09 00:15:45;;;;;;;;;;;;;;;14.89;78.41;100249.75;5077819;28;20424;-65
2022/05/09 00:18:17;;;;;;;;;;;;;;;14.90;78.50;100249.72;5077534;28;19975;-64
2022/05/09 00:20:45;;;;;;;;;;;;;;;14.88;78.10;100248.88;5077722;28;19925;-63
2022/05/09 00:23:14;;;;;;;;;;;;;;;14.90;78.57;100259.19;5077512;28;20317;-63
2022/05/09 00:25:43;;;;;;;;;;;;;;;14.96;78.39;100253.97;5077335;28;19925;-64
2022/05/09 00:28:11;;;;;;;;;;;;;;;14.98;77.88;100252.22;5077316;28;19978;-63
2022/05/09 00:30:40;;;;;;;;;;;;;;;14.99;78.19;100253.94;5077551;28;19924;-63
2022/05/09 00:33:09;;;;;;;;;;;;;;;15.01;78.18;100249.63;5077355;28;19977;-63
2022/05/09 00:35:41;;;;;;;;;;;;;;;15.03;77.98;100245.31;5077755;28;20038;-64
2022/05/09 00:38:10;;;;;;;;;;;;;;;15.02;77.90;100253.94;5077455;28;20370;-64
2022/05/09 00:40:39;;;;;;;;;;;;;;;15.04;77.84;100245.34;5077100;28;19931;-63
2022/05/09 00:43:23;;;;;;;;;;;;;;;15.05;77.81;100247.03;5076948;28;19928;-64
2022/05/09 00:45:51;;;;;;;;;;;;;;;15.08;78.14;100246.13;5077192;28;20360;-65
2022/05/09 00:48:21;;;;;;;;;;;;;;;15.05;78.11;100241.03;5076907;28;20382;-65
2022/05/09 00:50:51;;;;;;;;;;;;;;;15.06;78.00;100241.03;5077155;28;19933;-64
2022/05/09 00:53:20;;;;;;;;;;;;;;;15.08;78.05;100238.44;5076682;28;19970;-64
2022/05/09 00:55:50;;;;;;;;;;;;;;;15.03;77.89;100242.75;5077089;28;19925;-65
2022/05/09 00:58:21;;;;;;;;;;;;;;;15.01;78.00;100242.78;5076825;28;19924;-63
2022/05/09 01:00:51;;;;;;;;;;;;;;;15.00;78.24;100242.78;5077276;28;19998;-63
2022/05/09 01:03:24;;;;;;;;;;;;;;;14.98;78.42;100241.94;5076481;28;19924;-64
2022/05/09 01:05:54;;;;;;;;;;;;;;;14.98;78.65;100247.09;5076930;28;19924;-63
2022/05/09 01:08:25;;;;;;;;;;;;;;;14.92;78.28;100236.88;5075777;28;20362;-63
2022/05/09 01:10:54;;;;;;;;;;;;;;;14.93;78.44;100238.56;5076576;28;19978;-63
2022/05/09 01:13:25;;;;;;;;;;;;;;;14.88;78.59;100240.31;5076532;28;19924;-63
2022/05/09 01:15:54;;;;;;;;;;;;;;;14.86;78.84;100244.63;5076513;28;19964;-63
2022/05/09 01:18:23;;;;;;;;;;;;;;;14.92;78.79;100236.88;5076750;28;19950;-64
2022/05/09 01:20:52;;;;;;;;;;;;;;;14.95;78.76;100239.44;5076216;28;20462;-67
2022/05/09 01:23:22;;;;;;;;;;;;;;;14.88;78.46;100245.47;5075263;28;19985;-64
2022/05/09 01:25:52;;;;;;;;;;;;;;;14.80;78.67;100242.13;5076590;28;19924;-64
2022/05/09 01:28:21;;;;;;;;;;;;;;;14.78;78.73;100250.69;5076181;28;20001;-63
2022/05/09 01:30:54;;;;;;;;;;;;;;;14.78;78.92;100255.81;5076505;28;20363;-63
2022/05/09 01:33:25;;;;;;;;;;;;;;;14.75;78.75;100253.31;5076188;28;20026;-63
2022/05/09 01:35:55;;;;;;;;;;;;;;;14.74;79.35;100249.03;5076194;28;19925;-64
2022/05/09 01:38:27;;;;;;;;;;;;;;;14.77;78.95;100251.56;5076112;28;19946;-64
2022/05/09 01:40:56;;;;;;;;;;;;;;;14.78;79.39;100248.13;5076085;28;19970;-63
2022/05/09 01:43:33;;;;;;;;;;;;;;;14.80;78.89;100252.41;5075899;28;20015;-63
2022/05/09 01:46:02;;;;;;;;;;;;;;;14.81;79.20;100256.66;5075842;28;20370;-64
2022/05/09 01:51:08;;;;;;;;;;;;;;;14.80;79.16;100247.28;5075855;28;19978;-64
2022/05/09 01:53:39;;;;;;;;;;;;;;;14.75;78.88;100255.88;5075582;28;19925;-63
2022/05/09 01:56:08;;;;;;;;;;;;;;;14.70;78.73;100256.78;5075772;28;19974;-63
2022/05/09 01:58:36;;;;;;;;;;;;;;;14.68;78.60;100256.75;5075588;28;19931;-63
2022/05/09 02:01:07;;;;;;;;;;;;;;;14.72;79.02;100255.03;5075875;28;19994;-63
2022/05/09 02:03:36;;;;;;;;;;;;;;;14.70;78.25;100256.78;5075604;28;20445;-65
2022/05/09 02:06:08;;;;;;;;;;;;;;;14.68;78.45;100254.19;5075647;28;19952;-64
2022/05/09 02:08:39;;;;;;;;;;;;;;;14.68;78.32;100258.50;5075816;28;20358;-63
2022/05/09 02:11:07;;;;;;;;;;;;;;;14.67;77.90;100261.94;5075797;28;19967;-63
2022/05/09 02:13:36;;;;;;;;;;;;;;;14.61;77.77;100260.25;5075668;28;19925;-65
2022/05/09 02:16:05;;;;;;;;;;;;;;;14.55;77.87;100259.44;5075148;28;20016;-64
2022/05/09 02:18:34;;;;;;;;;;;;;;;14.54;77.93;100256.03;5075211;28;19924;-64
2022/05/09 02:21:03;;;;;;;;;;;;;;;14.54;77.89;100253.44;5075465;28;19982;-64
2022/05/09 02:23:32;;;;;;;;;;;;;;;14.48;77.90;100261.22;5075148;28;19924;-65
2022/05/09 02:26:04;;;;;;;;;;;;;;;14.42;77.87;100256.13;5075206;28;19924;-65
2022/05/09 02:28:32;;;;;;;;;;;;;;;14.39;77.51;100256.16;5075074;28;19931;-65
2022/05/09 02:31:01;;;;;;;;;;;;;;;14.31;77.90;100262.19;5075236;28;19960;-63
2022/05/09 02:33:30;;;;;;;;;;;;;;;14.20;77.91;100264.81;5074800;28;20300;-65
2022/05/09 02:35:58;;;;;;;;;;;;;;;14.21;77.72;100270.78;5075047;28;20337;-63
2022/05/09 02:38:28;;;;;;;;;;;;;;;14.24;78.11;100271.63;5075140;28;20353;-63
2022/05/09 02:40:57;;;;;;;;;;;;;;;14.23;78.02;100269.91;5075188;28;20035;-65
2022/05/09 02:43:28;;;;;;;;;;;;;;;14.29;77.84;100275.03;5074706;28;19930;-64
2022/05/09 02:46:03;;;;;;;;;;;;;;;14.28;77.80;100270.72;5074564;28;20418;-63
2022/05/09 02:48:32;;;;;;;;;;;;;;;14.24;78.11;100276.75;5074664;28;19979;-63
2022/05/09 02:51:01;;;;;;;;;;;;;;;14.17;78.14;100269.97;5074662;28;19928;-64
2022/05/09 02:53:30;;;;;;;;;;;;;;;14.12;78.26;100266.56;5074466;28;20018;-64
2022/05/09 02:55:58;;;;;;;;;;;;;;;14.13;78.44;100268.28;5074716;28;20436;-64
2022/05/09 02:58:28;;;;;;;;;;;;;;;14.11;78.02;100272.53;5074480;28;19974;-64
2022/05/09 03:00:57;;;;;;;;;;;;;;;14.04;78.26;100278.56;5074487;28;19925;-64
2022/05/09 03:06:04;;;;;;;;;;;;;;;13.88;78.25;100276.94;5074349;28;19924;-63
2022/05/09 03:08:33;;;;;;;;;;;;;;;13.80;78.14;100274.41;5074262;28;19924;-63
2022/05/09 03:11:11;;;;;;;;;;;;;;;13.86;78.30;100283.81;5074303;28;19964;-65
2022/05/09 03:13:41;;;;;;;;;;;;;;;13.86;78.65;100283.81;5074227;28;19929;-64
2022/05/09 03:16:09;;;;;;;;;;;;;;;13.86;78.81;100283.81;5074213;28;19928;-64
2022/05/09 03:18:38;;;;;;;;;;;;;;;13.91;78.81;100279.50;5074068;28;19925;-63
2022/05/09 03:21:07;;;;;;;;;;;;;;;13.91;78.85;100282.06;5074219;28;20277;-64
2022/05/09 03:23:37;;;;;;;;;;;;;;;13.92;78.41;100284.63;5074774;28;19924;-65
2022/05/09 03:26:05;;;;;;;;;;;;;;;13.91;78.40;100282.94;5074138;28;19928;-65
2022/05/09 03:28:34;;;;;;;;;;;;;;;13.87;78.15;100282.94;5073945;28;19924;-65
2022/05/09 03:31:04;;;;;;;;;;;;;;;13.83;78.75;100283.81;5074067;28;19924;-65
2022/05/09 03:33:39;;;;;;;;;;;;;;;13.80;78.45;100286.38;5074643;28;19929;-65
2022/05/09 03:36:08;;;;;;;;;;;;;;;13.81;78.93;100285.53;5073914;28;19932;-64
2022/05/09 03:38:38;;;;;;;;;;;;;;;13.87;78.95;100288.91;5073904;28;20011;-64
2022/05/09 03:41:06;;;;;;;;;;;;;;;13.96;78.87;100295.75;5073915;28;19936;-65
2022/05/09 03:43:35;;;;;;;;;;;;;;;14.02;78.46;100291.44;5073892;28;19928;-62
2022/05/09 03:46:05;;;;;;;;;;;;;;;14.01;78.57;100294.00;5073610;28;20457;-65
2022/05/09 03:48:34;;;;;;;;;;;;;;;13.98;78.32;100294.03;5073723;28;19924;-65
2022/05/09 03:51:03;;;;;;;;;;;;;;;13.93;78.73;100300.88;5073787;28;19925;-64
2022/05/09 03:53:32;;;;;;;;;;;;;;;13.91;78.38;100297.47;5073785;28;19950;-65
2022/05/09 03:56:01;;;;;;;;;;;;;;;13.89;78.47;100299.19;5073931;28;20366;-63
2022/05/09 03:58:30;;;;;;;;;;;;;;;13.84;78.58;100295.78;5073600;28;19964;-63
2022/05/09 04:00:58;;;;;;;;;;;;;;;13.84;78.83;100298.34;5073700;28;19964;-65
2022/05/09 04:03:28;;;;;;;;;;;;;;;13.84;79.02;100291.53;5073793;28;19978;-62
2022/05/09 04:05:57;;;;;;;;;;;;;;;13.86;79.04;100294.94;5074185;28;19928;-64
2022/05/09 04:08:25;;;;;;;;;;;;;;;13.86;79.09;100296.63;5073832;28;20314;-64
2022/05/09 04:10:55;;;;;;;;;;;;;;;13.87;79.10;100300.88;5073620;28;20012;-63
2022/05/09 04:13:23;;;;;;;;;;;;;;;13.93;79.01;100295.75;5074134;28;20376;-63
2022/05/09 04:18:32;;;;;;;;;;;;;;;14.04;78.93;100304.25;5073545;28;20340;-64
2022/05/09 04:21:01;;;;;;;;;;;;;;;14.10;78.80;100305.09;5073342;28;19924;-64
2022/05/09 04:23:30;;;;;;;;;;;;;;;13.98;78.53;100278.63;5073614;28;19936;-64
2022/05/09 04:25:58;;;;;;;;;;;;;;;14.22;78.72;100309.28;5073510;28;20370;-63
2022/05/09 04:28:27;;;;;;;;;;;;;;;14.32;78.71;100300.72;5073974;28;20290;-64
2022/05/09 04:30:57;;;;;;;;;;;;;;;14.40;78.59;100304.06;5073422;28;19924;-63
2022/05/09 04:33:29;;;;;;;;;;;;;;;14.57;78.63;100307.38;5074062;28;19924;-63
2022/05/09 04:36:00;;;;;;;;;;;;;;;14.73;77.94;100313.28;5073601;28;20327;-63
2022/05/09 04:38:28;;;;;;;;;;;;;;;14.90;77.61;100315.72;5073685;28;19932;-64
2022/05/09 04:40:58;;;;;;;;;;;;;;;15.06;77.47;100312.16;5073304;28;20011;-63
2022/05/09 04:43:30;;;;;;;;;;;;;;;15.24;76.88;100317.13;5073901;28;20378;-63
2022/05/09 04:45:59;;;;;;;;;;;;;;;15.39;76.59;100322.13;5073695;28;19925;-63
2022/05/09 04:48:28;;;;;;;;;;;;;;;15.58;75.74;100317.66;5073259;28;19924;-63
2022/05/09 04:50:57;;;;;;;;;;;;;;;15.71;75.16;100317.53;5073132;28;19924;-66
2022/05/09 04:53:28;;;;;;;;;;;;;;;15.83;74.65;100314.81;5073221;28;19924;-63
2022/05/09 04:55:57;;;;;;;;;;;;;;;15.96;74.26;100316.34;5073172;28;19925;-65
2022/05/09 04:58:32;;;;;;;;;;;;;;;16.10;74.15;100319.59;5074266;28;19931;-64
2022/05/09 05:01:01;;;;;;;;;;;;;;;16.23;73.52;100324.59;5076724;28;20408;-64
2022/05/09 05:03:29;;;;;;;;;;;;;;;16.33;73.18;100326.19;5077309;28;20329;-64
2022/05/09 05:05:58;;;;;;;;;;;;;;;16.44;72.74;100329.44;5076606;28;19925;-64
2022/05/09 05:08:34;;;;;;;;;;;;;;;16.55;72.18;100323.31;5076573;28;19978;-64
2022/05/09 05:11:03;;;;;;;;;;;;;;;16.64;71.85;100322.31;5076851;28;19931;-65
2022/05/09 05:13:35;;;;;;;;;;;;;;;16.73;71.53;100327.34;5076454;28;19932;-65
2022/05/09 05:16:03;;;;;;;;;;;;;;;16.82;70.82;100327.19;5076396;28;19974;-64
2022/05/09 05:18:34;;;;;;;;;;;;;;;16.93;70.37;100329.59;5076419;28;19930;-64
2022/05/09 05:21:10;;;;;;;;;;;;;;;17.07;69.69;100328.50;5076055;28;19924;-64
2022/05/09 05:23:40;;;;;;;;;;;;;;;17.20;69.38;100340.31;5076665;28;20378;-64
2022/05/09 05:26:10;;;;;;;;;;;;;;;17.27;68.96;100329.03;5076357;28;19931;-66
2022/05/09 05:28:39;;;;;;;;;;;;;;;17.36;68.39;100335.75;5076910;28;19924;-64
2022/05/09 05:31:15;;;;;;;;;;;;;;;17.47;68.05;100338.16;5076536;28;19924;-67
2022/05/09 05:33:47;;;;;;;;;;;;;;;17.51;67.44;100334.63;5076148;28;19930;-66
2022/05/09 05:36:16;;;;;;;;;;;;;;;17.58;66.79;100337.09;5076307;28;19932;-66
2022/05/09 05:38:51;;;;;;;;;;;;;;;17.63;65.74;100342.19;5076013;28;19924;-64
2022/05/09 05:41:20;;;;;;;;;;;;;;;17.67;64.94;100336.06;5075831;28;19925;-66
2022/05/09 05:43:49;;;;;;;;;;;;;;;17.78;64.78;100344.47;5076159;28;20374;-64
2022/05/09 05:46:19;;;;;;;;;;;;;;;17.93;64.68;100344.16;5076192;28;20034;-64
2022/05/09 05:48:47;;;;;;;;;;;;;;;18.08;64.47;100349.00;5076091;28;19971;-66
2022/05/09 05:51:18;;;;;;;;;;;;;;;18.19;64.30;100344.47;5075874;28;19925;-65
2022/05/09 05:53:48;;;;;;;;;;;;;;;18.28;64.33;100359.81;5075764;28;19925;-64
2022/05/09 05:56:17;;;;;;;;;;;;;;;18.45;64.48;100351.69;5075990;28;20332;-64
2022/05/09 05:58:46;;;;;;;;;;;;;;;18.49;64.06;100351.63;5075670;28;19924;-65
2022/05/09 06:01:14;;;;;;;;;;;;;;;18.54;63.75;100354.09;5077452;28;19924;-64
2022/05/09 06:03:43;;;;;;;;;;;;;;;18.65;63.67;100355.53;5075792;28;20286;-65
2022/05/09 06:06:13;;;;;;;;;;;;;;;18.61;62.98;100351.34;5075338;28;19928;-64
2022/05/09 06:08:43;;;;;;;;;;;;;;;18.68;62.68;100357.22;5075349;28;19959;-65
2022/05/09 06:11:13;;;;;;;;;;;;;;;18.70;62.31;100356.28;5075495;28;19929;-65
2022/05/09 06:13:42;;;;;;;;;;;;;;;18.73;61.93;100355.38;5075275;28;19935;-64
2022/05/09 06:16:11;;;;;;;;;;;;;;;18.78;61.61;100357.84;5075125;28;19974;-64
2022/05/09 06:18:40;;;;;;;;;;;;;;;18.84;61.37;100363.72;5075407;28;19924;-65
2022/05/09 06:21:09;;;;;;;;;;;;;;;18.91;61.25;100354.94;5075529;28;19925;-65
2022/05/09 06:23:38;;;;;;;;;;;;;;;18.98;61.45;100366.00;5074773;28;19925;-66
2022/05/09 06:26:06;;;;;;;;;;;;;;;19.05;60.97;100365.78;5075293;28;19974;-65
2022/05/09 06:28:37;;;;;;;;;;;;;;;19.12;60.50;100363.94;5074732;28;19924;-65
2022/05/09 06:31:06;;;;;;;;;;;;;;;19.17;60.50;100372.44;5074870;28;19970;-65
2022/05/09 06:33:35;;;;;;;;;;;;;;;19.25;60.18;100370.50;5074759;28;19930;-65
2022/05/09 06:36:05;;;;;;;;;;;;;;;19.27;59.56;100374.75;5074927;28;19925;-66
2022/05/09 06:38:34;;;;;;;;;;;;;;;19.31;59.09;100373.78;5074963;28;19946;-65
2022/05/09 06:41:03;;;;;;;;;;;;;;;19.30;57.81;100381.59;5074557;28;19981;-65
2022/05/09 06:43:31;;;;;;;;;;;;;;;19.23;57.17;100382.63;5074684;28;19960;-64
2022/05/09 06:46:01;;;;;;;;;;;;;;;19.26;56.81;100379.97;5074690;28;19931;-66
2022/05/09 06:48:31;;;;;;;;;;;;;;;19.38;56.64;100388.31;5074567;28;19974;-67
2022/05/09 06:50:59;;;;;;;;;;;;;;;19.46;56.50;100377.75;5074402;28;19924;-65
2022/05/09 06:53:28;;;;;;;;;;;;;;;19.61;56.11;100379.94;5074213;28;20401;-66
2022/05/09 06:55:59;;;;;;;;;;;;;;;19.59;54.95;100376.53;5074163;28;19968;-66
2022/05/09 06:58:28;;;;;;;;;;;;;;;19.55;55.31;100382.72;5074597;28;19924;-66
2022/05/09 07:00:57;;;;;;;;;;;;;;;19.68;56.13;100376.28;5074245;28;20015;-65
2022/05/09 07:03:30;;;;;;;;;;;;;;;19.78;56.56;100380.34;5093974;28;19924;-64
2022/05/09 07:06:00;;;;;;;;;;;;;;;19.91;56.56;100383.47;5092270;28;19932;-65
2022/05/09 07:08:32;;;;;;;;;;;;;;;20.04;56.46;100374.44;5085214;28;20366;-64
2022/05/09 07:11:02;;;;;;;;;;;;;;;20.17;56.10;100374.94;5088535;28;20362;-66
2022/05/09 07:13:51;;;;;;;;;;;;;;;20.28;55.81;100372.91;5094019;28;19931;-66
2022/05/09 07:16:22;;;;;;;;;;;;;;;20.38;55.28;100384.72;5078246;28;19924;-65
2022/05/09 07:18:59;;;;;;;;;;;;;;;20.38;54.33;100380.41;5094117;28;19924;-64
2022/05/09 07:21:32;;;;;;;;;;;;;;;20.42;54.33;100383.75;5093388;28;19924;-65
2022/05/09 07:24:03;;;;;;;;;;;;;;;20.50;54.58;100379.16;5094468;28;19924;-64
2022/05/09 07:26:32;;;;;;;;;;;;;;;20.53;54.46;100384.28;5094683;28;19931;-65
2022/05/09 07:29:01;;;;;;;;;;;;;;;20.65;54.49;100389.09;5094384;28;19954;-65
2022/05/09 07:31:35;;;;;;;;;;;;;;;20.64;53.97;100388.25;5094111;28;19931;-64
2022/05/09 07:34:06;;;;;;;;;;;;;;;20.76;54.46;100389.59;5094548;28;19928;-65
2022/05/09 07:36:34;;;;;;;;;;;;;;;20.88;55.08;100391.81;5094347;28;19946;-64
2022/05/09 07:39:05;;;;;;;;;;;;;;;20.98;54.69;100390.63;5094572;28;20277;-65
2022/05/09 07:41:35;;;;;;;;;;;;;;;21.13;54.73;100390.19;5094034;28;19930;-65
2022/05/09 07:44:04;;;;;;;;;;;;;;;21.31;54.08;100392.16;5094317;28;20271;-67
2022/05/09 07:46:33;;;;;;;;;;;;;;;21.42;53.49;100385.78;5087515;28;19974;-67
2022/05/09 07:49:14;;;;;;;;;;;;;;;21.36;52.85;100395.47;5075573;28;20378;-69
2022/05/09 07:51:42;;;;;;;;;;;;;;;21.27;52.66;100393.19;5089194;28;20011;-67
2022/05/09 07:54:11;;;;;;;;;;;;;;;21.27;52.57;100390.59;5091655;28;20007;-68
2022/05/09 07:56:43;;;;;;;;;;;;;;;21.35;52.53;100388.56;5082829;28;20370;-68
2022/05/09 07:59:12;;;;;;;;;;;;;;;21.44;52.30;100394.34;5073930;28;19929;-66
2022/05/09 08:01:41;;;;;;;;;;;;;;;21.54;52.27;100393.16;5075851;28;19924;-67
2022/05/09 08:04:10;;;;;;;;;;;;;;;21.71;52.16;100390.84;5078472;28;19925;-68
2022/05/09 08:06:40;;;;;;;;;;;;;;;21.73;51.52;100389.88;5073547;28;20374;-68
2022/05/09 08:09:09;;;;;;;;;;;;;;;21.67;51.38;100384.03;5078408;28;20410;-67
2022/05/09 08:11:38;;;;;;;;;;;;;;;21.71;51.59;100385.63;5086916;28;19924;-67
2022/05/09 08:14:08;;;;;;;;;;;;;;;21.88;51.49;100388.53;5079204;28;19924;-67
2022/05/09 08:16:43;;;;;;;;;;;;;;;22.06;51.85;100392.19;5093779;28;19928;-67
2022/05/09 08:19:12;;;;;;;;;;;;;;;22.12;50.77;100387.66;5093908;28;19924;-68
2022/05/09 08:21:42;;;;;;;;;;;;;;;22.30;50.46;100386.94;5093860;28;20271;-69
2022/05/09 08:24:11;;;;;;;;;;;;;;;22.39;50.10;100394.41;5093590;28;19924;-68
2022/05/09 08:26:40;;;;;;;;;;;;;;;22.52;50.02;100394.78;5093994;28;19928;-68
2022/05/09 08:29:09;;;;;;;;;;;;;;;22.52;48.85;100392.19;5086875;28;20015;-67
2022/05/09 08:31:38;;;;;;;;;;;;;;;22.55;48.45;100398.16;5075044;28;19924;-67
2022/05/09 08:34:17;;;;;;;;;;;;;;;22.57;47.58;100391.13;5087071;28;19960;-66
2022/05/09 08:36:48;;;;;;;;;;;;;;;22.77;47.81;100386.94;5097211;28;19924;-68
2022/05/09 08:39:17;;;;;;;;;;;;;;;22.82;48.04;100392.81;5097435;28;19924;-68
2022/05/09 08:41:52;;;;;;;;;;;;;;;22.81;48.31;100393.69;5089403;28;20286;-67
2022/05/09 08:44:25;;;;;;;;;;;;;;;22.85;47.90;100387.47;5093249;28;19924;-66
2022/05/09 08:47:03;;;;;;;;;;;;;;;22.98;47.72;100386.06;5097723;28;20282;-66
2022/05/09 08:49:37;;;;;;;;;;;;;;;23.12;47.15;100383.75;5096027;28;19924;-66
2022/05/09 08:52:11;;;;;;;;;;;;;;;23.30;47.62;100394.25;5077346;28;19964;-66
2022/05/09 08:54:40;;;;;;;;;;;;;;;23.53;47.78;100390.75;5089207;28;19973;-66
2022/05/09 08:57:12;;;;;;;;;;;;;;;23.81;48.08;100393.00;5088327;28;19925;-67
2022/05/09 08:59:43;;;;;;;;;;;;;;;23.72;46.62;100391.66;5079055;28;20015;-66
2022/05/09 09:02:14;;;;;;;;;;;;;;;23.73;46.01;100387.28;5091232;28;20016;-67
2022/05/09 09:04:47;;;;;;;;;;;;;;;23.68;45.63;100384.84;5097325;28;19932;-67
2022/05/09 09:07:37;;;;;;;;;;;;;;;23.85;45.92;100391.97;5096864;28;19963;-66
2022/05/09 09:10:13;;;;;;;;;;;;;;;24.03;47.00;100378.09;5093823;28;19967;-66
2022/05/09 09:12:47;;;;;;;;;;;;;;;24.14;47.81;100385.50;5088370;28;19970;-66
2022/05/09 09:15:24;;;;;;;;;;;;;;;24.13;46.84;100379.44;5078740;28;19970;-66
2022/05/09 09:18:01;;;;;;;;;;;;;;;24.09;45.53;100384.84;5104262;28;19924;-67
2022/05/09 09:20:34;;;;;;;;;;;;;;;24.16;45.95;100386.28;5076198;28;19925;-67
2022/05/09 09:23:15;;;;;;;;;;;;;;;24.18;45.28;100385.28;5076373;28;20397;-67
2022/05/09 09:25:52;;;;;;;;;;;;;;;24.13;44.23;100382.03;5083626;28;20006;-67
2022/05/09 09:28:27;;;;;;;;;;;;;;;24.33;43.98;100388.97;5092182;28;19924;-68
2022/05/09 09:30:56;;;;;;;;;;;;;;;24.25;44.10;100383.22;5095398;28;19924;-68
2022/05/09 09:33:25;;;;;;;;;;;;;;;24.14;44.28;100378.50;5089592;28;20439;-69
2022/05/09 09:35:56;;;;;;;;;;;;;;;24.17;44.33;100388.78;5095170;28;19928;-67
2022/05/09 09:38:35;;;;;;;;;;;;;;;24.26;44.08;100384.94;5096461;28;19925;-68
2022/05/09 09:41:14;;;;;;;;;;;;;;;24.37;44.46;100382.69;5096225;28;19934;-67
2022/05/09 09:43:44;;;;;;;;;;;;;;;24.48;43.72;100383.00;5095961;28;19924;-66
2022/05/09 09:46:13;;;;;;;;;;;;;;;24.84;44.99;100385.69;5094214;28;20382;-67
2022/05/09 09:48:43;;;;;;;;;;;;;;;25.02;43.86;100385.66;5089560;28;20449;-66
2022/05/09 09:51:17;;;;;;;;;;;;;;;25.11;43.97;100389.59;5078220;28;20011;-66
2022/05/09 09:53:58;;;;;;;;;;;;;;;25.29;43.15;100375.59;5091997;28;19932;-65
2022/05/09 09:56:28;;;;;;;;;;;;;;;25.23;43.10;100384.59;5096230;28;19939;-64
2022/05/09 09:58:59;;;;;;;;;;;;;;;25.10;44.37;100377.44;5095689;28;19931;-66
2022/05/09 10:01:30;;;;;;;;;;;;;;;25.04;45.10;100377.75;5087961;28;19931;-66
2022/05/09 10:04:06;;;;;;;;;;;;;;;25.11;44.73;100368.69;5089950;28;19978;-65
2022/05/09 10:06:35;;;;;;;;;;;;;;;25.26;45.80;100374.00;5075414;28;19931;-65
2022/05/09 10:09:06;;;;;;;;;;;;;;;25.39;44.03;100366.38;5082010;28;19931;-67
2022/05/09 10:11:35;;;;;;;;;;;;;;;24.94;43.74;100366.91;5081957;28;19924;-64
2022/05/09 10:14:06;;;;;;;;;;;;;;;24.41;44.17;100368.56;5095727;28;20386;-64
2022/05/09 10:16:38;;;;;;;;;;;;;;;24.25;45.04;100364.97;5095716;28;20002;-64
2022/05/09 10:19:09;;;;;;;;;;;;;;;24.51;45.51;100362.00;5091071;28;19977;-65
2022/05/09 10:27:02;;;;;;;;;;;;;;;25.47;44.69;100351.19;5075070;28;19925;-66
2022/05/09 10:29:37;;;;;;;;;;;;;;;25.44;42.68;100350.47;5075252;28;19931;-66
2022/05/09 10:32:09;;;;;;;;;;;;;;;25.29;43.56;100347.69;5075192;28;19947;-65
2022/05/09 10:34:43;;;;;;;;;;;;;;;25.35;42.39;100346.56;5074879;28;19925;-66
2022/05/09 10:37:16;;;;;;;;;;;;;;;25.45;41.37;100352.19;5074853;28;19924;-66
2022/05/09 10:39:48;;;;;;;;;;;;;;;25.37;42.03;100344.69;5075004;28;19954;-66
2022/05/09 10:42:26;;;;;;;;;;;;;;;25.20;42.37;100342.09;5075356;28;20357;-65
2022/05/09 10:45:02;;;;;;;;;;;;;;;25.11;43.54;100338.19;5074719;28;19929;-65
2022/05/09 10:47:36;;;;;;;;;;;;;;;25.11;43.48;100343.41;5074804;28;19924;-66
2022/05/09 10:50:09;;;;;;;;;;;;;;;25.21;43.96;100328.97;5074911;28;19928;-65
2022/05/09 10:52:42;;;;;;;;;;;;;;;25.31;44.01;100330.16;5074942;28;19924;-66
2022/05/09 10:55:13;;;;;;;;;;;;;;;25.31;43.49;100330.16;5074808;28;20356;-66
2022/05/09 10:57:43;;;;;;;;;;;;;;;25.56;42.51;100324.56;5074818;28;20022;-66
2022/05/09 11:00:18;;;;;;;;;;;;;;;25.65;41.60;100328.50;5074463;28;19924;-66
2022/05/09 11:02:54;;;;;;;;;;;;;;;25.41;42.01;100321.88;5074384;28;19924;-65
2022/05/09 11:05:24;;;;;;;;;;;;;;;25.29;42.64;100326.78;5074790;28;19924;-65
2022/05/09 11:08:00;;;;;;;;;;;;;;;25.48;43.14;100321.53;5074067;28;19952;-65
2022/05/09 11:10:32;;;;;;;;;;;;;;;25.41;42.48;100316.66;5074605;28;19931;-65
2022/05/09 11:13:06;;;;;;;;;;;;;;;25.73;43.38;100314.06;5086230;28;19924;-65
2022/05/09 11:15:43;;;;;;;;;;;;;;;25.60;42.50;100315.63;5090075;28;20274;-65
2022/05/09 11:18:21;;;;;;;;;;;;;;;25.23;42.28;100314.03;5082932;28;19925;-65
2022/05/09 11:20:53;;;;;;;;;;;;;;;25.03;41.60;100303.75;5074521;28;19960;-65
2022/05/09 11:23:27;;;;;;;;;;;;;;;25.08;41.49;100300.88;5074358;28;19924;-64
2022/05/09 11:26:03;;;;;;;;;;;;;;;25.06;40.86;100303.59;5075786;28;20317;-65
2022/05/09 11:28:47;;;;;;;;;;;;;;;25.28;41.56;100298.13;5085455;28;20439;-64
2022/05/09 11:31:24;;;;;;;;;;;;;;;25.45;42.41;100300.75;5094298;28;19924;-64
2022/05/09 11:34:03;;;;;;;;;;;;;;;25.49;42.93;100294.44;5094150;28;19977;-65
2022/05/09 11:36:45;;;;;;;;;;;;;;;25.57;43.17;100292.28;5086584;28;19955;-64
2022/05/09 11:39:15;;;;;;;;;;;;;;;25.93;43.47;100292.09;5088521;28;20010;-66
2022/05/09 11:41:47;;;;;;;;;;;;;;;26.01;43.04;100289.88;5092179;28;19928;-64
2022/05/09 11:44:17;;;;;;;;;;;;;;;26.13;43.04;100288.41;5110787;28;20022;-65
2022/05/09 11:47:03;;;;;;;;;;;;;;;25.92;41.82;100279.91;5098521;28;19959;-66
2022/05/09 11:49:43;;;;;;;;;;;;;;;25.57;40.88;100283.56;5078735;28;19935;-66
2022/05/09 11:52:19;;;;;;;;;;;;;;;25.49;41.44;100275.28;5089341;28;20372;-66
2022/05/09 11:54:49;;;;;;;;;;;;;;;24.94;41.39;100266.78;5094160;28;20374;-65
2022/05/09 11:57:21;;;;;;;;;;;;;;;24.48;41.72;100268.16;5093925;28;20007;-66
2022/05/09 11:59:51;;;;;;;;;;;;;;;24.38;42.23;100272.13;5093737;28;19924;-66
2022/05/09 12:02:43;;;;;;;;;;;;;;;24.32;41.89;100262.00;5091807;28;19925;-65
2022/05/09 12:05:27;;;;;;;;;;;;;;;24.45;42.20;100260.50;5083807;28;19959;-65
2022/05/09 12:07:57;;;;;;;;;;;;;;;24.79;41.76;100262.31;5091148;28;19982;-65
2022/05/09 12:10:30;;;;;;;;;;;;;;;25.06;42.33;100272.25;5097959;28;19928;-66
2022/05/09 12:13:00;;;;;;;;;;;;;;;25.31;42.20;100256.97;5097772;28;19924;-65
2022/05/09 12:15:42;;;;;;;;;;;;;;;25.39;41.54;100261.00;5089826;28;19946;-64
2022/05/09 12:18:22;;;;;;;;;;;;;;;25.29;40.23;100258.81;5085121;28;19925;-66
2022/05/09 12:21:02;;;;;;;;;;;;;;;25.33;40.06;100261.28;5098974;28;19946;-66
2022/05/09 12:23:42;;;;;;;;;;;;;;;25.46;41.52;100260.59;5097709;28;19924;-64
2022/05/09 12:26:27;;;;;;;;;;;;;;;25.61;40.05;100254.56;5097600;28;19924;-65
2022/05/09 12:29:07;;;;;;;;;;;;;;;25.95;40.93;100258.81;5098238;28;19930;-64
2022/05/09 12:31:42;;;;;;;;;;;;;;;26.14;41.31;100264.78;5097935;28;20014;-66
2022/05/09 12:34:15;;;;;;;;;;;;;;;26.17;40.00;100254.13;5097611;28;20279;-65
2022/05/09 12:36:46;;;;;;;;;;;;;;;26.11;40.02;100259.69;5099024;28;19930;-65
2022/05/09 12:39:16;;;;;;;;;;;;;;;26.09;40.29;100256.28;5096421;28;20006;-65
2022/05/09 12:41:48;;;;;;;;;;;;;;;26.38;40.42;100259.94;5097366;28;19932;-66
2022/05/09 12:44:19;;;;;;;;;;;;;;;26.63;39.21;100251.53;5097331;28;19931;-65
2022/05/09 12:46:51;;;;;;;;;;;;;;;26.63;39.97;100250.59;5097206;28;19946;-66
2022/05/09 12:49:23;;;;;;;;;;;;;;;26.57;38.72;100258.81;5097374;28;19924;-66
2022/05/09 12:51:53;;;;;;;;;;;;;;;26.22;36.24;100273.06;5097029;28;19961;-67
2022/05/09 12:54:25;;;;;;;;;;;;;;;25.51;38.10;100273.41;5097225;28;20324;-66
2022/05/09 12:56:56;;;;;;;;;;;;;;;25.02;40.20;100270.72;5097158;28;19924;-67
2022/05/09 12:59:24;;;;;;;;;;;;;;;24.61;41.35;100269.28;5097265;28;19954;-68
2022/05/09 13:01:55;;;;;;;;;;;;;;;24.32;42.23;100272.44;5079240;28;19939;-65
2022/05/09 13:04:47;;;;;;;;;;;;;;;24.14;42.95;100283.75;5094942;28;20394;-65
2022/05/09 13:07:16;;;;;;;;;;;;;;;23.85;43.98;100291.09;5085530;28;19964;-65
2022/05/09 13:09:47;;;;;;;;;;;;;;;23.37;45.62;100290.66;5076751;28;20394;-66